sensor_id;sensor_type;location;lat;lon;timestamp;temperature;humidity
8862;DHT22;4799;50.996;4.754;2023-06-14T00:01:17;20.30;54.80
8862;DHT22;4799;50.996;4.754;2023-06-14T00:03:45;20.30;55.00
8862;DHT22;4799;50.996;4.754;2023-06-14T00:06:13;20.20;55.10
8862;DHT22;4799;50.996;4.754;2023-06-14T00:08:38;20.20;55.40
8862;DHT22;4799;50.996;4.754;2023-06-14T00:11:06;20.10;55.80
8862;DHT22;4799;50.996;4.754;2023-06-14T00:13:32;20.00;55.90
8862;DHT22;4799;50.996;4.754;2023-06-14T00:15:58;20.00;56.40
8862;DHT22;4799;50.996;4.754;2023-06-14T00:18:24;19.90;56.40
8862;DHT22;4799;50.996;4.754;2023-06-14T00:20:50;19.80;57.00
8862;DHT22;4799;50.996;4.754;2023-06-14T00:23:17;19.80;57.20
8862;DHT22;4799;50.996;4.754;2023-06-14T00:25:43;19.70;58.00
8862;DHT22;4799;50.996;4.754;2023-06-14T00:28:09;19.70;58.80
8862;DHT22;4799;50.996;4.754;2023-06-14T00:30:35;19.70;58.20
8862;DHT22;4799;50.996;4.754;2023-06-14T00:33:01;19.60;58.80
8862;DHT22;4799;50.996;4.754;2023-06-14T00:35:26;19.60;58.80
8862;DHT22;4799;50.996;4.754;2023-06-14T00:37:52;19.60;59.10
8862;DHT22;4799;50.996;4.754;2023-06-14T00:40:20;19.50;59.10
8862;DHT22;4799;50.996;4.754;2023-06-14T00:42:46;19.50;59.60
8862;DHT22;4799;50.996;4.754;2023-06-14T00:45:12;19.50;59.30
8862;DHT22;4799;50.996;4.754;2023-06-14T00:47:41;19.50;59.80
8862;DHT22;4799;50.996;4.754;2023-06-14T00:50:08;19.50;59.80
8862;DHT22;4799;50.996;4.754;2023-06-14T00:52:34;19.40;59.90
8862;DHT22;4799;50.996;4.754;2023-06-14T00:55:00;19.50;60.30
8862;DHT22;4799;50.996;4.754;2023-06-14T00:57:27;19.40;60.70
8862;DHT22;4799;50.996;4.754;2023-06-14T00:59:53;19.40;61.00
8862;DHT22;4799;50.996;4.754;2023-06-14T01:02:20;19.40;61.70
8862;DHT22;4799;50.996;4.754;2023-06-14T01:04:47;19.40;62.20
8862;DHT22;4799;50.996;4.754;2023-06-14T01:15:08;19.20;63.10
8862;DHT22;4799;50.996;4.754;2023-06-14T01:17:35;19.20;63.90
8862;DHT22;4799;50.996;4.754;2023-06-14T01:20:02;19.10;64.60
8862;DHT22;4799;50.996;4.754;2023-06-14T01:22:28;19.10;64.70
8862;DHT22;4799;50.996;4.754;2023-06-14T01:24:54;19.10;65.00
8862;DHT22;4799;50.996;4.754;2023-06-14T01:27:25;19.10;65.60
8862;DHT22;4799;50.996;4.754;2023-06-14T01:29:54;19.10;66.00
8862;DHT22;4799;50.996;4.754;2023-06-14T01:32:24;19.10;66.00
8862;DHT22;4799;50.996;4.754;2023-06-14T01:34:51;19.00;66.40
8862;DHT22;4799;50.996;4.754;2023-06-14T01:37:17;19.00;67.40
8862;DHT22;4799;50.996;4.754;2023-06-14T01:39:44;18.90;67.90
8862;DHT22;4799;50.996;4.754;2023-06-14T01:42:11;19.00;68.20
8862;DHT22;4799;50.996;4.754;2023-06-14T01:44:37;18.90;68.70
8862;DHT22;4799;50.996;4.754;2023-06-14T01:47:04;18.80;69.70
8862;DHT22;4799;50.996;4.754;2023-06-14T01:49:29;18.80;70.20
8862;DHT22;4799;50.996;4.754;2023-06-14T01:51:58;18.70;70.60
8862;DHT22;4799;50.996;4.754;2023-06-14T01:54:24;18.70;71.20
8862;DHT22;4799;50.996;4.754;2023-06-14T01:56:51;18.60;71.60
8862;DHT22;4799;50.996;4.754;2023-06-14T01:59:17;18.60;72.50
8862;DHT22;4799;50.996;4.754;2023-06-14T02:01:42;18.60;74.10
8862;DHT22;4799;50.996;4.754;2023-06-14T02:04:08;18.50;75.20
8862;DHT22;4799;50.996;4.754;2023-06-14T02:06:34;18.50;75.40
8862;DHT22;4799;50.996;4.754;2023-06-14T02:09:01;18.50;75.40
8862;DHT22;4799;50.996;4.754;2023-06-14T02:11:27;18.40;75.70
8862;DHT22;4799;50.996;4.754;2023-06-14T02:13:53;18.30;75.90
8862;DHT22;4799;50.996;4.754;2023-06-14T02:16:20;18.30;76.90
8862;DHT22;4799;50.996;4.754;2023-06-14T02:18:46;18.30;78.30
8862;DHT22;4799;50.996;4.754;2023-06-14T02:21:12;18.30;78.20
8862;DHT22;4799;50.996;4.754;2023-06-14T02:23:38;18.20;78.40
8862;DHT22;4799;50.996;4.754;2023-06-14T02:26:04;18.20;78.40
8862;DHT22;4799;50.996;4.754;2023-06-14T02:28:29;18.10;78.80
8862;DHT22;4799;50.996;4.754;2023-06-14T02:30:55;18.10;79.40
8862;DHT22;4799;50.996;4.754;2023-06-14T02:33:21;18.00;80.00
8862;DHT22;4799;50.996;4.754;2023-06-14T02:35:47;18.00;79.90
8862;DHT22;4799;50.996;4.754;2023-06-14T02:38:13;17.90;81.40
8862;DHT22;4799;50.996;4.754;2023-06-14T02:40:38;17.80;80.90
8862;DHT22;4799;50.996;4.754;2023-06-14T02:43:04;17.80;83.30
8862;DHT22;4799;50.996;4.754;2023-06-14T02:45:30;17.70;83.70
8862;DHT22;4799;50.996;4.754;2023-06-14T02:47:55;17.70;84.40
8862;DHT22;4799;50.996;4.754;2023-06-14T02:50:21;17.60;84.90
8862;DHT22;4799;50.996;4.754;2023-06-14T02:52:49;17.60;85.20
8862;DHT22;4799;50.996;4.754;2023-06-14T02:55:15;17.50;86.00
8862;DHT22;4799;50.996;4.754;2023-06-14T02:57:40;17.50;87.30
8862;DHT22;4799;50.996;4.754;2023-06-14T03:00:06;17.40;88.50
8862;DHT22;4799;50.996;4.754;2023-06-14T03:02:35;17.40;88.40
8862;DHT22;4799;50.996;4.754;2023-06-14T03:05:01;17.30;88.60
8862;DHT22;4799;50.996;4.754;2023-06-14T03:07:28;17.30;88.20
8862;DHT22;4799;50.996;4.754;2023-06-14T03:09:55;17.20;88.50
8862;DHT22;4799;50.996;4.754;2023-06-14T03:12:20;17.20;90.00
8862;DHT22;4799;50.996;4.754;2023-06-14T03:14:46;17.10;90.00
8862;DHT22;4799;50.996;4.754;2023-06-14T03:17:12;17.10;90.40
8862;DHT22;4799;50.996;4.754;2023-06-14T03:19:38;17.10;90.60
8862;DHT22;4799;50.996;4.754;2023-06-14T03:22:04;17.10;90.80
8862;DHT22;4799;50.996;4.754;2023-06-14T03:24:30;17.00;90.80
8862;DHT22;4799;50.996;4.754;2023-06-14T03:27:02;17.00;91.10
8862;DHT22;4799;50.996;4.754;2023-06-14T03:29:27;17.00;91.10
8862;DHT22;4799;50.996;4.754;2023-06-14T03:32:01;17.00;91.30
8862;DHT22;4799;50.996;4.754;2023-06-14T03:34:27;16.90;91.80
8862;DHT22;4799;50.996;4.754;2023-06-14T03:36:53;16.90;91.90
8862;DHT22;4799;50.996;4.754;2023-06-14T03:39:19;16.90;91.80
8862;DHT22;4799;50.996;4.754;2023-06-14T03:41:45;16.90;91.80
8862;DHT22;4799;50.996;4.754;2023-06-14T03:44:11;16.90;91.80
8862;DHT22;4799;50.996;4.754;2023-06-14T03:46:37;16.90;92.10
8862;DHT22;4799;50.996;4.754;2023-06-14T03:49:03;16.90;92.30
8862;DHT22;4799;50.996;4.754;2023-06-14T03:51:28;16.90;92.30
8862;DHT22;4799;50.996;4.754;2023-06-14T03:53:54;16.80;92.60
8862;DHT22;4799;50.996;4.754;2023-06-14T03:56:21;16.90;92.90
8862;DHT22;4799;50.996;4.754;2023-06-14T03:58:47;16.90;93.40
8862;DHT22;4799;50.996;4.754;2023-06-14T04:01:13;17.00;93.20
8862;DHT22;4799;50.996;4.754;2023-06-14T04:03:39;17.10;93.10
8862;DHT22;4799;50.996;4.754;2023-06-14T04:06:06;17.20;93.40
8862;DHT22;4799;50.996;4.754;2023-06-14T04:08:32;17.40;93.70
8862;DHT22;4799;50.996;4.754;2023-06-14T04:10:57;17.40;93.90
8862;DHT22;4799;50.996;4.754;2023-06-14T04:13:23;17.50;93.80
8862;DHT22;4799;50.996;4.754;2023-06-14T04:15:49;17.60;92.90
8862;DHT22;4799;50.996;4.754;2023-06-14T04:18:15;17.70;92.80
8862;DHT22;4799;50.996;4.754;2023-06-14T04:20:40;17.80;92.10
8862;DHT22;4799;50.996;4.754;2023-06-14T04:23:15;17.90;91.80
8862;DHT22;4799;50.996;4.754;2023-06-14T04:25:43;18.10;91.50
8862;DHT22;4799;50.996;4.754;2023-06-14T04:28:14;18.20;91.20
8862;DHT22;4799;50.996;4.754;2023-06-14T04:30:44;18.30;91.00
8862;DHT22;4799;50.996;4.754;2023-06-14T04:33:12;18.40;90.60
8862;DHT22;4799;50.996;4.754;2023-06-14T04:35:39;18.40;90.30
8862;DHT22;4799;50.996;4.754;2023-06-14T04:38:06;18.50;89.40
8862;DHT22;4799;50.996;4.754;2023-06-14T04:40:35;18.60;87.90
8862;DHT22;4799;50.996;4.754;2023-06-14T04:43:09;18.70;87.00
8862;DHT22;4799;50.996;4.754;2023-06-14T04:45:38;18.80;86.20
8862;DHT22;4799;50.996;4.754;2023-06-14T04:48:05;18.80;85.10
8862;DHT22;4799;50.996;4.754;2023-06-14T04:50:32;18.90;84.50
8862;DHT22;4799;50.996;4.754;2023-06-14T04:52:59;18.90;84.00
8862;DHT22;4799;50.996;4.754;2023-06-14T04:55:25;18.90;83.40
8862;DHT22;4799;50.996;4.754;2023-06-14T04:57:52;19.00;83.40
8862;DHT22;4799;50.996;4.754;2023-06-14T05:00:21;18.90;83.70
8862;DHT22;4799;50.996;4.754;2023-06-14T05:02:47;18.90;84.10
8862;DHT22;4799;50.996;4.754;2023-06-14T05:05:14;18.80;84.30
8862;DHT22;4799;50.996;4.754;2023-06-14T05:07:41;18.90;85.20
8862;DHT22;4799;50.996;4.754;2023-06-14T05:10:07;18.80;85.50
8862;DHT22;4799;50.996;4.754;2023-06-14T05:12:33;18.80;87.10
8862;DHT22;4799;50.996;4.754;2023-06-14T05:14:59;18.80;87.00
8862;DHT22;4799;50.996;4.754;2023-06-14T05:17:25;18.80;87.30
8862;DHT22;4799;50.996;4.754;2023-06-14T05:19:53;18.80;87.60
8862;DHT22;4799;50.996;4.754;2023-06-14T05:22:21;18.80;87.70
8862;DHT22;4799;50.996;4.754;2023-06-14T05:24:47;18.90;88.40
8862;DHT22;4799;50.996;4.754;2023-06-14T05:27:13;18.90;88.10
8862;DHT22;4799;50.996;4.754;2023-06-14T05:29:39;18.90;89.10
8862;DHT22;4799;50.996;4.754;2023-06-14T05:32:06;19.00;88.50
8862;DHT22;4799;50.996;4.754;2023-06-14T05:34:31;19.00;88.40
8862;DHT22;4799;50.996;4.754;2023-06-14T05:36:57;19.10;88.10
8862;DHT22;4799;50.996;4.754;2023-06-14T05:39:23;19.10;87.20
8862;DHT22;4799;50.996;4.754;2023-06-14T05:41:49;19.20;86.00
8862;DHT22;4799;50.996;4.754;2023-06-14T05:44:15;19.20;86.50
8862;DHT22;4799;50.996;4.754;2023-06-14T05:46:41;19.30;85.30
8862;DHT22;4799;50.996;4.754;2023-06-14T05:49:07;19.40;84.20
8862;DHT22;4799;50.996;4.754;2023-06-14T05:51:32;19.40;83.50
8862;DHT22;4799;50.996;4.754;2023-06-14T05:53:59;19.50;83.90
8862;DHT22;4799;50.996;4.754;2023-06-14T05:56:25;19.50;82.60
8862;DHT22;4799;50.996;4.754;2023-06-14T05:58:51;19.60;81.90
8862;DHT22;4799;50.996;4.754;2023-06-14T06:01:17;19.60;81.90
8862;DHT22;4799;50.996;4.754;2023-06-14T06:03:42;19.70;81.70
8862;DHT22;4799;50.996;4.754;2023-06-14T06:06:12;19.80;81.70
8862;DHT22;4799;50.996;4.754;2023-06-14T06:08:38;19.80;81.70
8862;DHT22;4799;50.996;4.754;2023-06-14T06:11:04;19.90;80.20
8862;DHT22;4799;50.996;4.754;2023-06-14T06:13:29;19.90;80.20
8862;DHT22;4799;50.996;4.754;2023-06-14T06:15:55;20.00;79.60
8862;DHT22;4799;50.996;4.754;2023-06-14T06:18:22;20.00;78.30
8862;DHT22;4799;50.996;4.754;2023-06-14T06:20:47;20.10;78.20
8862;DHT22;4799;50.996;4.754;2023-06-14T06:23:13;20.10;77.80
8862;DHT22;4799;50.996;4.754;2023-06-14T06:25:39;20.20;78.30
8862;DHT22;4799;50.996;4.754;2023-06-14T06:28:06;20.30;77.50
8862;DHT22;4799;50.996;4.754;2023-06-14T06:30:32;20.30;76.80
8862;DHT22;4799;50.996;4.754;2023-06-14T06:32:58;20.40;75.70
8862;DHT22;4799;50.996;4.754;2023-06-14T06:35:23;20.40;75.80
8862;DHT22;4799;50.996;4.754;2023-06-14T06:37:49;20.50;75.80
8862;DHT22;4799;50.996;4.754;2023-06-14T06:40:15;20.50;75.80
8862;DHT22;4799;50.996;4.754;2023-06-14T06:42:41;20.60;75.70
8862;DHT22;4799;50.996;4.754;2023-06-14T06:45:07;20.80;75.20
8862;DHT22;4799;50.996;4.754;2023-06-14T06:47:33;20.90;74.40
8862;DHT22;4799;50.996;4.754;2023-06-14T06:49:58;20.90;73.90
8862;DHT22;4799;50.996;4.754;2023-06-14T06:52:24;21.00;73.70
8862;DHT22;4799;50.996;4.754;2023-06-14T06:54:50;21.20;75.20
8862;DHT22;4799;50.996;4.754;2023-06-14T06:57:20;21.20;73.60
8862;DHT22;4799;50.996;4.754;2023-06-14T06:59:48;21.30;72.60
8862;DHT22;4799;50.996;4.754;2023-06-14T07:02:15;21.50;71.80
8862;DHT22;4799;50.996;4.754;2023-06-14T07:04:40;21.50;72.30
8862;DHT22;4799;50.996;4.754;2023-06-14T07:07:07;21.50;70.90
8862;DHT22;4799;50.996;4.754;2023-06-14T07:09:35;21.60;70.20
8862;DHT22;4799;50.996;4.754;2023-06-14T07:12:01;21.60;68.70
8862;DHT22;4799;50.996;4.754;2023-06-14T07:14:26;21.60;68.00
8862;DHT22;4799;50.996;4.754;2023-06-14T07:16:52;21.70;69.00
8862;DHT22;4799;50.996;4.754;2023-06-14T07:19:18;21.90;68.20
8862;DHT22;4799;50.996;4.754;2023-06-14T07:21:44;22.00;67.30
8862;DHT22;4799;50.996;4.754;2023-06-14T07:24:10;22.10;67.10
8862;DHT22;4799;50.996;4.754;2023-06-14T07:26:36;22.20;66.80
8862;DHT22;4799;50.996;4.754;2023-06-14T07:29:02;22.20;67.00
8862;DHT22;4799;50.996;4.754;2023-06-14T07:31:28;22.30;66.80
8862;DHT22;4799;50.996;4.754;2023-06-14T07:33:53;22.30;66.90
8862;DHT22;4799;50.996;4.754;2023-06-14T07:36:19;22.30;65.90
8862;DHT22;4799;50.996;4.754;2023-06-14T07:38:46;22.30;66.40
8862;DHT22;4799;50.996;4.754;2023-06-14T07:41:11;22.40;66.60
8862;DHT22;4799;50.996;4.754;2023-06-14T07:43:37;22.40;66.20
8862;DHT22;4799;50.996;4.754;2023-06-14T07:46:03;22.40;65.60
8862;DHT22;4799;50.996;4.754;2023-06-14T07:48:29;22.50;65.60
8862;DHT22;4799;50.996;4.754;2023-06-14T07:50:55;22.50;64.50
8862;DHT22;4799;50.996;4.754;2023-06-14T07:53:21;22.60;66.60
8862;DHT22;4799;50.996;4.754;2023-06-14T07:55:46;22.70;68.30
8862;DHT22;4799;50.996;4.754;2023-06-14T07:58:14;22.70;64.50
8862;DHT22;4799;50.996;4.754;2023-06-14T08:00:39;22.80;63.30
8862;DHT22;4799;50.996;4.754;2023-06-14T08:03:05;22.90;63.90
8862;DHT22;4799;50.996;4.754;2023-06-14T08:05:31;23.00;64.30
8862;DHT22;4799;50.996;4.754;2023-06-14T08:07:56;23.10;65.10
8862;DHT22;4799;50.996;4.754;2023-06-14T08:10:22;23.10;64.40
8862;DHT22;4799;50.996;4.754;2023-06-14T08:12:48;23.30;63.20
8862;DHT22;4799;50.996;4.754;2023-06-14T08:15:18;23.40;62.60
8862;DHT22;4799;50.996;4.754;2023-06-14T08:17:45;23.40;60.60
8862;DHT22;4799;50.996;4.754;2023-06-14T08:20:11;23.50;59.80
8862;DHT22;4799;50.996;4.754;2023-06-14T08:22:37;23.60;59.10
8862;DHT22;4799;50.996;4.754;2023-06-14T08:25:03;23.70;59.40
8862;DHT22;4799;50.996;4.754;2023-06-14T08:27:30;23.70;58.30
8862;DHT22;4799;50.996;4.754;2023-06-14T08:29:56;23.70;57.10
8862;DHT22;4799;50.996;4.754;2023-06-14T08:32:22;23.70;57.30
8862;DHT22;4799;50.996;4.754;2023-06-14T08:34:48;23.80;58.10
8862;DHT22;4799;50.996;4.754;2023-06-14T08:37:14;23.80;57.80
8862;DHT22;4799;50.996;4.754;2023-06-14T08:39:39;23.90;57.90
8862;DHT22;4799;50.996;4.754;2023-06-14T08:42:07;23.90;57.80
8862;DHT22;4799;50.996;4.754;2023-06-14T08:44:34;23.90;57.50
8862;DHT22;4799;50.996;4.754;2023-06-14T08:47:00;23.90;57.50
8862;DHT22;4799;50.996;4.754;2023-06-14T08:49:26;23.90;57.40
8862;DHT22;4799;50.996;4.754;2023-06-14T08:52:00;23.90;56.70
8862;DHT22;4799;50.996;4.754;2023-06-14T08:54:27;24.00;56.50
8862;DHT22;4799;50.996;4.754;2023-06-14T08:56:56;24.20;55.80
8862;DHT22;4799;50.996;4.754;2023-06-14T08:59:26;24.20;55.50
8862;DHT22;4799;50.996;4.754;2023-06-14T09:01:53;24.30;55.40
8862;DHT22;4799;50.996;4.754;2023-06-14T09:04:20;24.40;55.90
8862;DHT22;4799;50.996;4.754;2023-06-14T09:06:47;24.60;56.00
8862;DHT22;4799;50.996;4.754;2023-06-14T09:09:22;24.60;54.50
8862;DHT22;4799;50.996;4.754;2023-06-14T09:11:51;24.60;54.00
8862;DHT22;4799;50.996;4.754;2023-06-14T09:14:23;24.60;54.10
8862;DHT22;4799;50.996;4.754;2023-06-14T09:16:52;24.70;54.40
8862;DHT22;4799;50.996;4.754;2023-06-14T09:19:25;24.70;53.70
8862;DHT22;4799;50.996;4.754;2023-06-14T09:21:52;24.90;53.40
8862;DHT22;4799;50.996;4.754;2023-06-14T09:24:19;25.00;53.50
8862;DHT22;4799;50.996;4.754;2023-06-14T09:26:48;25.10;52.10
8862;DHT22;4799;50.996;4.754;2023-06-14T09:29:17;25.20;50.20
8862;DHT22;4799;50.996;4.754;2023-06-14T09:31:45;25.20;50.20
8862;DHT22;4799;50.996;4.754;2023-06-14T09:34:11;25.20;49.90
8862;DHT22;4799;50.996;4.754;2023-06-14T09:36:39;25.30;49.50
8862;DHT22;4799;50.996;4.754;2023-06-14T09:39:05;25.30;48.40
8862;DHT22;4799;50.996;4.754;2023-06-14T09:41:41;25.40;47.90
8862;DHT22;4799;50.996;4.754;2023-06-14T09:44:08;25.40;47.60
8862;DHT22;4799;50.996;4.754;2023-06-14T09:46:36;25.40;47.90
8862;DHT22;4799;50.996;4.754;2023-06-14T09:49:03;25.40;48.40
8862;DHT22;4799;50.996;4.754;2023-06-14T09:51:29;25.60;48.40
8862;DHT22;4799;50.996;4.754;2023-06-14T09:54:00;25.60;48.50
8862;DHT22;4799;50.996;4.754;2023-06-14T09:56:36;25.70;48.70
8862;DHT22;4799;50.996;4.754;2023-06-14T09:59:05;25.70;47.80
8862;DHT22;4799;50.996;4.754;2023-06-14T10:01:34;25.80;47.70
8862;DHT22;4799;50.996;4.754;2023-06-14T10:04:06;25.90;47.50
8862;DHT22;4799;50.996;4.754;2023-06-14T10:06:39;25.80;46.30
8862;DHT22;4799;50.996;4.754;2023-06-14T10:09:08;25.80;46.40
8862;DHT22;4799;50.996;4.754;2023-06-14T10:11:35;25.70;46.30
8862;DHT22;4799;50.996;4.754;2023-06-14T10:14:02;25.80;46.70
8862;DHT22;4799;50.996;4.754;2023-06-14T10:16:36;25.80;45.40
8862;DHT22;4799;50.996;4.754;2023-06-14T10:19:17;25.90;45.60
8862;DHT22;4799;50.996;4.754;2023-06-14T10:21:58;25.80;45.40
8862;DHT22;4799;50.996;4.754;2023-06-14T10:24:55;25.90;44.40
8862;DHT22;4799;50.996;4.754;2023-06-14T10:27:21;25.90;44.70
8862;DHT22;4799;50.996;4.754;2023-06-14T10:32:19;26.00;44.70
8862;DHT22;4799;50.996;4.754;2023-06-14T10:34:49;26.00;43.40
8862;DHT22;4799;50.996;4.754;2023-06-14T10:37:18;26.00;42.80
8862;DHT22;4799;50.996;4.754;2023-06-14T10:39:45;26.00;42.90
8862;DHT22;4799;50.996;4.754;2023-06-14T10:42:12;26.00;43.50
8862;DHT22;4799;50.996;4.754;2023-06-14T10:44:51;26.10;43.90
8862;DHT22;4799;50.996;4.754;2023-06-14T10:47:36;26.20;43.50
8862;DHT22;4799;50.996;4.754;2023-06-14T10:50:06;26.20;42.80
8862;DHT22;4799;50.996;4.754;2023-06-14T10:52:41;26.30;43.00
8862;DHT22;4799;50.996;4.754;2023-06-14T10:55:12;26.30;42.30
8862;DHT22;4799;50.996;4.754;2023-06-14T10:57:50;26.30;42.10
8862;DHT22;4799;50.996;4.754;2023-06-14T11:00:24;26.40;42.40
8862;DHT22;4799;50.996;4.754;2023-06-14T11:11:08;26.70;41.90
8862;DHT22;4799;50.996;4.754;2023-06-14T11:13:38;26.80;41.40
8862;DHT22;4799;50.996;4.754;2023-06-14T11:16:10;26.90;41.90
8862;DHT22;4799;50.996;4.754;2023-06-14T11:18:37;27.00;41.20
8862;DHT22;4799;50.996;4.754;2023-06-14T11:21:03;27.10;41.40
8862;DHT22;4799;50.996;4.754;2023-06-14T11:23:29;27.10;41.40
8862;DHT22;4799;50.996;4.754;2023-06-14T11:25:55;26.90;40.70
8862;DHT22;4799;50.996;4.754;2023-06-14T11:28:20;26.90;41.00
8862;DHT22;4799;50.996;4.754;2023-06-14T11:30:48;27.00;41.10
8862;DHT22;4799;50.996;4.754;2023-06-14T11:33:18;27.00;41.10
8862;DHT22;4799;50.996;4.754;2023-06-14T11:35:46;27.00;40.70
8862;DHT22;4799;50.996;4.754;2023-06-14T11:38:13;26.90;40.20
8862;DHT22;4799;50.996;4.754;2023-06-14T11:40:39;26.90;40.70
8862;DHT22;4799;50.996;4.754;2023-06-14T11:43:04;27.00;40.40
8862;DHT22;4799;50.996;4.754;2023-06-14T11:45:31;27.10;40.70
8862;DHT22;4799;50.996;4.754;2023-06-14T11:47:58;27.20;40.90
8862;DHT22;4799;50.996;4.754;2023-06-14T11:50:24;27.20;40.40
8862;DHT22;4799;50.996;4.754;2023-06-14T11:52:59;27.20;40.40
8862;DHT22;4799;50.996;4.754;2023-06-14T11:55:29;27.20;39.60
8862;DHT22;4799;50.996;4.754;2023-06-14T11:57:55;27.20;39.90
8862;DHT22;4799;50.996;4.754;2023-06-14T12:00:25;27.20;40.20
8862;DHT22;4799;50.996;4.754;2023-06-14T12:02:56;27.30;40.60
8862;DHT22;4799;50.996;4.754;2023-06-14T12:05:22;27.30;39.40
8862;DHT22;4799;50.996;4.754;2023-06-14T12:07:49;27.30;39.60
8862;DHT22;4799;50.996;4.754;2023-06-14T12:10:16;27.40;39.30
8862;DHT22;4799;50.996;4.754;2023-06-14T12:12:42;27.40;39.20
8862;DHT22;4799;50.996;4.754;2023-06-14T12:15:09;27.30;37.90
8862;DHT22;4799;50.996;4.754;2023-06-14T12:17:37;27.30;38.90
8862;DHT22;4799;50.996;4.754;2023-06-14T12:20:11;27.40;38.60
8862;DHT22;4799;50.996;4.754;2023-06-14T12:22:54;27.50;37.50
8862;DHT22;4799;50.996;4.754;2023-06-14T12:25:27;27.50;37.30
8862;DHT22;4799;50.996;4.754;2023-06-14T12:27:56;27.60;37.20
8862;DHT22;4799;50.996;4.754;2023-06-14T12:30:22;27.60;37.10
8862;DHT22;4799;50.996;4.754;2023-06-14T12:32:47;27.60;37.10
8862;DHT22;4799;50.996;4.754;2023-06-14T12:35:14;27.40;36.60
8862;DHT22;4799;50.996;4.754;2023-06-14T12:37:40;27.40;36.30
8862;DHT22;4799;50.996;4.754;2023-06-14T12:40:06;27.40;35.50
8862;DHT22;4799;50.996;4.754;2023-06-14T12:42:33;27.30;35.00
8862;DHT22;4799;50.996;4.754;2023-06-14T12:44:59;27.40;35.30
8862;DHT22;4799;50.996;4.754;2023-06-14T12:47:25;27.40;35.50
8862;DHT22;4799;50.996;4.754;2023-06-14T12:49:51;27.40;35.50
8862;DHT22;4799;50.996;4.754;2023-06-14T12:52:17;27.40;35.40
8862;DHT22;4799;50.996;4.754;2023-06-14T12:54:42;27.40;35.90
8862;DHT22;4799;50.996;4.754;2023-06-14T12:57:08;27.50;35.40
8862;DHT22;4799;50.996;4.754;2023-06-14T12:59:35;27.70;35.50
8862;DHT22;4799;50.996;4.754;2023-06-14T13:04:36;27.80;36.20
8862;DHT22;4799;50.996;4.754;2023-06-14T13:07:02;27.70;35.50
8862;DHT22;4799;50.996;4.754;2023-06-14T13:09:28;27.70;35.60
8862;DHT22;4799;50.996;4.754;2023-06-14T13:11:54;27.80;35.60
8862;DHT22;4799;50.996;4.754;2023-06-14T13:14:19;27.80;35.30
8862;DHT22;4799;50.996;4.754;2023-06-14T13:16:45;27.80;35.10
8862;DHT22;4799;50.996;4.754;2023-06-14T13:19:11;27.70;35.00
8862;DHT22;4799;50.996;4.754;2023-06-14T13:21:37;27.80;34.90
8862;DHT22;4799;50.996;4.754;2023-06-14T13:24:02;27.90;35.10
8862;DHT22;4799;50.996;4.754;2023-06-14T13:26:28;27.90;35.10
8862;DHT22;4799;50.996;4.754;2023-06-14T13:28:54;28.00;34.70
8862;DHT22;4799;50.996;4.754;2023-06-14T13:31:20;27.90;34.50
8862;DHT22;4799;50.996;4.754;2023-06-14T13:33:45;27.90;34.20
8862;DHT22;4799;50.996;4.754;2023-06-14T13:36:11;27.90;34.50
8862;DHT22;4799;50.996;4.754;2023-06-14T13:38:37;28.00;34.70
8862;DHT22;4799;50.996;4.754;2023-06-14T13:41:03;28.00;34.50
8862;DHT22;4799;50.996;4.754;2023-06-14T13:43:28;28.10;34.90
8862;DHT22;4799;50.996;4.754;2023-06-14T13:45:54;28.20;34.80
8862;DHT22;4799;50.996;4.754;2023-06-14T13:48:20;28.10;34.90
8862;DHT22;4799;50.996;4.754;2023-06-14T13:50:46;28.10;34.70
8862;DHT22;4799;50.996;4.754;2023-06-14T13:53:11;28.10;35.30
8862;DHT22;4799;50.996;4.754;2023-06-14T13:55:37;28.20;35.50
8862;DHT22;4799;50.996;4.754;2023-06-14T13:58:03;28.30;35.40
8862;DHT22;4799;50.996;4.754;2023-06-14T14:00:30;28.30;34.60
8862;DHT22;4799;50.996;4.754;2023-06-14T14:02:55;28.40;34.90
8862;DHT22;4799;50.996;4.754;2023-06-14T14:05:22;28.30;34.80
8862;DHT22;4799;50.996;4.754;2023-06-14T14:07:54;28.20;35.10
8862;DHT22;4799;50.996;4.754;2023-06-14T14:10:20;28.30;35.50
8862;DHT22;4799;50.996;4.754;2023-06-14T14:12:46;28.20;35.20
8862;DHT22;4799;50.996;4.754;2023-06-14T14:15:11;28.20;34.80
8862;DHT22;4799;50.996;4.754;2023-06-14T14:17:40;28.10;34.30
8862;DHT22;4799;50.996;4.754;2023-06-14T14:20:07;28.10;34.20
8862;DHT22;4799;50.996;4.754;2023-06-14T14:22:32;28.10;34.40
8862;DHT22;4799;50.996;4.754;2023-06-14T14:24:58;28.00;34.70
8862;DHT22;4799;50.996;4.754;2023-06-14T14:27:24;28.10;35.70
8862;DHT22;4799;50.996;4.754;2023-06-14T14:29:49;28.10;35.40
8862;DHT22;4799;50.996;4.754;2023-06-14T14:32:15;28.10;35.60
8862;DHT22;4799;50.996;4.754;2023-06-14T14:34:41;28.10;35.50
8862;DHT22;4799;50.996;4.754;2023-06-14T14:37:07;28.30;35.90
8862;DHT22;4799;50.996;4.754;2023-06-14T14:39:32;28.20;35.00
8862;DHT22;4799;50.996;4.754;2023-06-14T14:41:58;28.20;35.00
8862;DHT22;4799;50.996;4.754;2023-06-14T14:44:25;28.20;35.20
8862;DHT22;4799;50.996;4.754;2023-06-14T14:46:50;28.30;35.30
8862;DHT22;4799;50.996;4.754;2023-06-14T14:49:16;28.30;35.00
8862;DHT22;4799;50.996;4.754;2023-06-14T14:51:42;28.40;34.90
8862;DHT22;4799;50.996;4.754;2023-06-14T14:54:08;28.40;34.90
8862;DHT22;4799;50.996;4.754;2023-06-14T14:56:33;28.50;34.90
8862;DHT22;4799;50.996;4.754;2023-06-14T14:59:00;28.50;35.50
8862;DHT22;4799;50.996;4.754;2023-06-14T15:01:26;28.50;35.50
8862;DHT22;4799;50.996;4.754;2023-06-14T15:03:52;28.60;35.60
8862;DHT22;4799;50.996;4.754;2023-06-14T15:06:18;28.70;35.70
8862;DHT22;4799;50.996;4.754;2023-06-14T15:08:43;28.80;35.40
8862;DHT22;4799;50.996;4.754;2023-06-14T15:11:10;28.70;35.20
8862;DHT22;4799;50.996;4.754;2023-06-14T15:13:35;28.70;35.50
8862;DHT22;4799;50.996;4.754;2023-06-14T15:16:01;28.70;35.10
8862;DHT22;4799;50.996;4.754;2023-06-14T15:18:27;28.70;35.20
8862;DHT22;4799;50.996;4.754;2023-06-14T15:20:53;28.70;35.40
8862;DHT22;4799;50.996;4.754;2023-06-14T15:23:19;28.70;34.90
8862;DHT22;4799;50.996;4.754;2023-06-14T15:25:46;28.70;34.80
8862;DHT22;4799;50.996;4.754;2023-06-14T15:28:14;28.70;34.90
8862;DHT22;4799;50.996;4.754;2023-06-14T15:30:40;28.80;35.20
8862;DHT22;4799;50.996;4.754;2023-06-14T15:33:06;28.90;35.30
8862;DHT22;4799;50.996;4.754;2023-06-14T15:35:32;28.90;35.30
8862;DHT22;4799;50.996;4.754;2023-06-14T15:37:58;29.00;35.00
8862;DHT22;4799;50.996;4.754;2023-06-14T15:40:23;29.10;34.90
8862;DHT22;4799;50.996;4.754;2023-06-14T15:42:49;29.00;34.30
8862;DHT22;4799;50.996;4.754;2023-06-14T15:45:15;29.00;34.50
8862;DHT22;4799;50.996;4.754;2023-06-14T15:47:41;29.10;33.60
8862;DHT22;4799;50.996;4.754;2023-06-14T15:50:07;29.00;33.30
8862;DHT22;4799;50.996;4.754;2023-06-14T15:52:34;28.90;33.00
8862;DHT22;4799;50.996;4.754;2023-06-14T15:54:59;28.80;33.40
8862;DHT22;4799;50.996;4.754;2023-06-14T15:57:25;28.90;33.30
8862;DHT22;4799;50.996;4.754;2023-06-14T15:59:51;28.90;33.60
8862;DHT22;4799;50.996;4.754;2023-06-14T16:02:17;29.20;33.20
8862;DHT22;4799;50.996;4.754;2023-06-14T16:04:43;29.60;32.80
8862;DHT22;4799;50.996;4.754;2023-06-14T16:07:09;29.90;32.60
8862;DHT22;4799;50.996;4.754;2023-06-14T16:09:35;30.50;32.30
8862;DHT22;4799;50.996;4.754;2023-06-14T16:12:01;30.90;32.60
8862;DHT22;4799;50.996;4.754;2023-06-14T16:14:27;31.10;31.70
8862;DHT22;4799;50.996;4.754;2023-06-14T16:16:53;31.10;31.90
8862;DHT22;4799;50.996;4.754;2023-06-14T16:19:18;31.30;32.20
8862;DHT22;4799;50.996;4.754;2023-06-14T16:21:44;31.40;31.80